sensor_id;sensor_type;location;lat;lon;timestamp;P1;durP1;ratioP1;P2;durP2;ratioP2
55218;SDS011;65463;43.864;20.136;2024-02-23T00:00:13;8.88;;;4.05;;
55218;SDS011;65463;43.864;20.136;2024-02-23T00:02:39;8.73;;;3.47;;
55218;SDS011;65463;43.864;20.136;2024-02-23T00:05:05;8.18;;;3.80;;
55218;SDS011;65463;43.864;20.136;2024-02-23T00:07:32;12.55;;;5.10;;
55218;SDS011;65463;43.864;20.136;2024-02-23T00:09:58;21.75;;;7.50;;
55218;SDS011;65463;43.864;20.136;2024-02-23T00:12:24;15.48;;;6.00;;
55218;SDS011;65463;43.864;20.136;2024-02-23T00:14:53;15.98;;;6.57;;
55218;SDS011;65463;43.864;20.136;2024-02-23T00:17:19;13.52;;;5.18;;
55218;SDS011;65463;43.864;20.136;2024-02-23T00:19:47;9.13;;;4.45;;
55218;SDS011;65463;43.864;20.136;2024-02-23T00:22:14;8.65;;;4.15;;
55218;SDS011;65463;43.864;20.136;2024-02-23T00:24:40;9.57;;;4.30;;
55218;SDS011;65463;43.864;20.136;2024-02-23T00:27:06;19.95;;;7.07;;
55218;SDS011;65463;43.864;20.136;2024-02-23T00:29:32;15.23;;;6.25;;
55218;SDS011;65463;43.864;20.136;2024-02-23T00:31:59;12.60;;;6.15;;
55218;SDS011;65463;43.864;20.136;2024-02-23T00:34:25;16.65;;;5.90;;
55218;SDS011;65463;43.864;20.136;2024-02-23T00:36:51;11.18;;;4.82;;
55218;SDS011;65463;43.864;20.136;2024-02-23T00:39:17;13.95;;;4.55;;
55218;SDS011;65463;43.864;20.136;2024-02-23T00:41:44;8.52;;;4.20;;
55218;SDS011;65463;43.864;20.136;2024-02-23T00:44:10;8.82;;;3.58;;
55218;SDS011;65463;43.864;20.136;2024-02-23T00:46:36;5.85;;;3.15;;
55218;SDS011;65463;43.864;20.136;2024-02-23T00:49:02;7.32;;;3.40;;
55218;SDS011;65463;43.864;20.136;2024-02-23T00:51:28;8.45;;;3.72;;
55218;SDS011;65463;43.864;20.136;2024-02-23T00:53:55;27.63;;;8.75;;
55218;SDS011;65463;43.864;20.136;2024-02-23T00:56:21;11.60;;;4.43;;
55218;SDS011;65463;43.864;20.136;2024-02-23T00:58:50;18.23;;;7.15;;
55218;SDS011;65463;43.864;20.136;2024-02-23T01:01:16;22.58;;;8.55;;
55218;SDS011;65463;43.864;20.136;2024-02-23T01:03:43;18.88;;;6.97;;
55218;SDS011;65463;43.864;20.136;2024-02-23T01:06:09;18.30;;;6.38;;
55218;SDS011;65463;43.864;20.136;2024-02-23T01:08:35;15.27;;;6.35;;
55218;SDS011;65463;43.864;20.136;2024-02-23T01:11:01;14.20;;;6.15;;
55218;SDS011;65463;43.864;20.136;2024-02-23T01:13:27;15.90;;;6.18;;
55218;SDS011;65463;43.864;20.136;2024-02-23T01:15:53;14.23;;;5.13;;
55218;SDS011;65463;43.864;20.136;2024-02-23T01:18:20;11.05;;;4.10;;
55218;SDS011;65463;43.864;20.136;2024-02-23T01:20:46;12.30;;;5.00;;
55218;SDS011;65463;43.864;20.136;2024-02-23T01:23:12;11.25;;;4.15;;
55218;SDS011;65463;43.864;20.136;2024-02-23T01:25:38;9.00;;;4.40;;
55218;SDS011;65463;43.864;20.136;2024-02-23T01:28:04;15.48;;;5.03;;
55218;SDS011;65463;43.864;20.136;2024-02-23T01:30:30;11.95;;;4.78;;
55218;SDS011;65463;43.864;20.136;2024-02-23T01:32:56;15.18;;;6.03;;
55218;SDS011;65463;43.864;20.136;2024-02-23T01:35:23;14.43;;;5.28;;
55218;SDS011;65463;43.864;20.136;2024-02-23T01:37:49;14.35;;;5.05;;
55218;SDS011;65463;43.864;20.136;2024-02-23T01:40:15;15.35;;;5.30;;
55218;SDS011;65463;43.864;20.136;2024-02-23T01:42:41;14.32;;;5.03;;
55218;SDS011;65463;43.864;20.136;2024-02-23T01:45:08;13.45;;;5.22;;
55218;SDS011;65463;43.864;20.136;2024-02-23T01:47:34;13.00;;;5.00;;
55218;SDS011;65463;43.864;20.136;2024-02-23T01:50:00;13.88;;;5.00;;
55218;SDS011;65463;43.864;20.136;2024-02-23T01:52:27;14.80;;;4.68;;
55218;SDS011;65463;43.864;20.136;2024-02-23T01:54:53;12.32;;;5.60;;
55218;SDS011;65463;43.864;20.136;2024-02-23T01:57:20;15.35;;;5.55;;
55218;SDS011;65463;43.864;20.136;2024-02-23T01:59:47;16.60;;;6.60;;
55218;SDS011;65463;43.864;20.136;2024-02-23T02:02:14;17.38;;;6.78;;
55218;SDS011;65463;43.864;20.136;2024-02-23T02:04:40;18.48;;;6.80;;
55218;SDS011;65463;43.864;20.136;2024-02-23T02:07:06;16.38;;;5.82;;
55218;SDS011;65463;43.864;20.136;2024-02-23T02:09:35;18.02;;;5.55;;
55218;SDS011;65463;43.864;20.136;2024-02-23T02:12:01;20.35;;;7.22;;
55218;SDS011;65463;43.864;20.136;2024-02-23T02:14:27;18.23;;;7.78;;
55218;SDS011;65463;43.864;20.136;2024-02-23T02:16:56;20.17;;;8.00;;
55218;SDS011;65463;43.864;20.136;2024-02-23T02:19:22;15.90;;;7.20;;
55218;SDS011;65463;43.864;20.136;2024-02-23T02:21:49;17.02;;;5.78;;
55218;SDS011;65463;43.864;20.136;2024-02-23T02:24:15;13.77;;;5.82;;
55218;SDS011;65463;43.864;20.136;2024-02-23T02:26:41;10.07;;;4.75;;
55218;SDS011;65463;43.864;20.136;2024-02-23T02:29:10;10.00;;;4.63;;
55218;SDS011;65463;43.864;20.136;2024-02-23T02:31:36;11.55;;;5.55;;
55218;SDS011;65463;43.864;20.136;2024-02-23T02:34:03;18.02;;;6.70;;
55218;SDS011;65463;43.864;20.136;2024-02-23T02:36:29;14.35;;;6.00;;
55218;SDS011;65463;43.864;20.136;2024-02-23T02:38:56;18.05;;;5.65;;
55218;SDS011;65463;43.864;20.136;2024-02-23T02:41:23;19.08;;;5.50;;
55218;SDS011;65463;43.864;20.136;2024-02-23T02:43:50;14.57;;;6.47;;
55218;SDS011;65463;43.864;20.136;2024-02-23T02:46:16;15.40;;;6.05;;
55218;SDS011;65463;43.864;20.136;2024-02-23T02:48:44;12.30;;;5.45;;
55218;SDS011;65463;43.864;20.136;2024-02-23T02:51:11;16.50;;;5.53;;
55218;SDS011;65463;43.864;20.136;2024-02-23T02:53:37;9.75;;;4.80;;
55218;SDS011;65463;43.864;20.136;2024-02-23T02:56:05;10.50;;;4.82;;
55218;SDS011;65463;43.864;20.136;2024-02-23T02:58:32;11.45;;;4.90;;
55218;SDS011;65463;43.864;20.136;2024-02-23T03:00:58;12.85;;;4.78;;
55218;SDS011;65463;43.864;20.136;2024-02-23T03:03:24;15.57;;;6.20;;
55218;SDS011;65463;43.864;20.136;2024-02-23T03:05:50;16.73;;;5.90;;
55218;SDS011;65463;43.864;20.136;2024-02-23T03:08:17;18.02;;;6.35;;
55218;SDS011;65463;43.864;20.136;2024-02-23T03:10:43;17.20;;;6.90;;
55218;SDS011;65463;43.864;20.136;2024-02-23T03:13:09;18.77;;;6.15;;
55218;SDS011;65463;43.864;20.136;2024-02-23T03:15:35;14.52;;;5.80;;
55218;SDS011;65463;43.864;20.136;2024-02-23T03:18:01;15.07;;;5.55;;
55218;SDS011;65463;43.864;20.136;2024-02-23T03:20:30;19.00;;;6.55;;
55218;SDS011;65463;43.864;20.136;2024-02-23T03:22:58;14.65;;;5.82;;
55218;SDS011;65463;43.864;20.136;2024-02-23T03:25:26;15.77;;;5.85;;
55218;SDS011;65463;43.864;20.136;2024-02-23T03:27:54;21.02;;;6.07;;
55218;SDS011;65463;43.864;20.136;2024-02-23T03:30:21;12.85;;;5.25;;
55218;SDS011;65463;43.864;20.136;2024-02-23T03:32:47;10.57;;;3.63;;
55218;SDS011;65463;43.864;20.136;2024-02-23T03:35:15;13.38;;;4.53;;
55218;SDS011;65463;43.864;20.136;2024-02-23T03:37:42;13.13;;;4.57;;
55218;SDS011;65463;43.864;20.136;2024-02-23T03:40:08;13.63;;;4.70;;
55218;SDS011;65463;43.864;20.136;2024-02-23T03:42:35;10.90;;;4.63;;
55218;SDS011;65463;43.864;20.136;2024-02-23T03:45:01;14.27;;;5.10;;
55218;SDS011;65463;43.864;20.136;2024-02-23T03:47:30;14.63;;;4.85;;
55218;SDS011;65463;43.864;20.136;2024-02-23T03:49:59;17.55;;;5.45;;
55218;SDS011;65463;43.864;20.136;2024-02-23T03:52:25;13.52;;;4.68;;
55218;SDS011;65463;43.864;20.136;2024-02-23T03:54:51;11.98;;;4.97;;
55218;SDS011;65463;43.864;20.136;2024-02-23T03:57:20;14.95;;;5.95;;
55218;SDS011;65463;43.864;20.136;2024-02-23T03:59:53;15.27;;;5.43;;
55218;SDS011;65463;43.864;20.136;2024-02-23T04:02:19;17.23;;;5.53;;
55218;SDS011;65463;43.864;20.136;2024-02-23T04:04:45;12.90;;;5.20;;
55218;SDS011;65463;43.864;20.136;2024-02-23T04:07:12;12.60;;;5.10;;
55218;SDS011;65463;43.864;20.136;2024-02-23T04:09:38;11.77;;;4.75;;
55218;SDS011;65463;43.864;20.136;2024-02-23T04:12:04;12.82;;;5.43;;
55218;SDS011;65463;43.864;20.136;2024-02-23T04:14:32;14.10;;;5.97;;
55218;SDS011;65463;43.864;20.136;2024-02-23T04:17:04;15.68;;;5.60;;
55218;SDS011;65463;43.864;20.136;2024-02-23T04:19:31;15.88;;;5.82;;
55218;SDS011;65463;43.864;20.136;2024-02-23T04:21:57;18.30;;;6.10;;
55218;SDS011;65463;43.864;20.136;2024-02-23T04:24:23;20.65;;;6.68;;
55218;SDS011;65463;43.864;20.136;2024-02-23T04:26:49;18.63;;;6.85;;
55218;SDS011;65463;43.864;20.136;2024-02-23T04:29:15;23.17;;;6.75;;
55218;SDS011;65463;43.864;20.136;2024-02-23T04:31:42;18.17;;;6.55;;
55218;SDS011;65463;43.864;20.136;2024-02-23T04:34:08;17.75;;;6.88;;
55218;SDS011;65463;43.864;20.136;2024-02-23T04:36:36;18.42;;;6.25;;
55218;SDS011;65463;43.864;20.136;2024-02-23T04:39:03;16.25;;;6.28;;
55218;SDS011;65463;43.864;20.136;2024-02-23T04:41:29;15.73;;;6.70;;
55218;SDS011;65463;43.864;20.136;2024-02-23T04:43:58;19.42;;;6.63;;
55218;SDS011;65463;43.864;20.136;2024-02-23T04:46:25;18.52;;;6.78;;
55218;SDS011;65463;43.864;20.136;2024-02-23T04:48:51;20.27;;;7.10;;
55218;SDS011;65463;43.864;20.136;2024-02-23T04:51:17;17.23;;;6.57;;
55218;SDS011;65463;43.864;20.136;2024-02-23T04:53:44;19.52;;;6.50;;
55218;SDS011;65463;43.864;20.136;2024-02-23T04:56:11;17.38;;;6.53;;
55218;SDS011;65463;43.864;20.136;2024-02-23T04:58:37;14.52;;;5.45;;
55218;SDS011;65463;43.864;20.136;2024-02-23T05:01:09;15.27;;;6.20;;
55218;SDS011;65463;43.864;20.136;2024-02-23T05:03:36;15.57;;;6.35;;
55218;SDS011;65463;43.864;20.136;2024-02-23T05:06:02;14.82;;;6.38;;
55218;SDS011;65463;43.864;20.136;2024-02-23T05:08:32;16.77;;;6.00;;
55218;SDS011;65463;43.864;20.136;2024-02-23T05:10:58;17.27;;;6.53;;
55218;SDS011;65463;43.864;20.136;2024-02-23T05:13:24;15.48;;;6.13;;
55218;SDS011;65463;43.864;20.136;2024-02-23T05:15:51;15.52;;;6.20;;
55218;SDS011;65463;43.864;20.136;2024-02-23T05:18:17;14.32;;;6.30;;
55218;SDS011;65463;43.864;20.136;2024-02-23T05:20:43;18.27;;;5.50;;
55218;SDS011;65463;43.864;20.136;2024-02-23T05:23:09;14.90;;;6.28;;
55218;SDS011;65463;43.864;20.136;2024-02-23T05:25:36;18.90;;;5.65;;
55218;SDS011;65463;43.864;20.136;2024-02-23T05:28:02;13.45;;;6.22;;
55218;SDS011;65463;43.864;20.136;2024-02-23T05:30:28;15.57;;;6.22;;
55218;SDS011;65463;43.864;20.136;2024-02-23T05:32:56;14.95;;;6.25;;
55218;SDS011;65463;43.864;20.136;2024-02-23T05:35:24;14.25;;;5.90;;
55218;SDS011;65463;43.864;20.136;2024-02-23T05:37:59;17.45;;;6.55;;
55218;SDS011;65463;43.864;20.136;2024-02-23T05:40:29;16.50;;;6.22;;
55218;SDS011;65463;43.864;20.136;2024-02-23T05:42:55;14.45;;;6.32;;
55218;SDS011;65463;43.864;20.136;2024-02-23T05:45:22;16.88;;;7.18;;
55218;SDS011;65463;43.864;20.136;2024-02-23T05:47:51;14.35;;;5.80;;
55218;SDS011;65463;43.864;20.136;2024-02-23T05:50:18;14.43;;;5.25;;
55218;SDS011;65463;43.864;20.136;2024-02-23T05:52:44;12.10;;;5.40;;
55218;SDS011;65463;43.864;20.136;2024-02-23T05:55:10;13.73;;;5.45;;
55218;SDS011;65463;43.864;20.136;2024-02-23T05:57:36;13.63;;;5.45;;
55218;SDS011;65463;43.864;20.136;2024-02-23T06:00:08;13.73;;;5.85;;
55218;SDS011;65463;43.864;20.136;2024-02-23T06:02:34;16.13;;;5.47;;
55218;SDS011;65463;43.864;20.136;2024-02-23T06:05:00;19.85;;;7.13;;
55218;SDS011;65463;43.864;20.136;2024-02-23T06:07:26;16.48;;;7.40;;
55218;SDS011;65463;43.864;20.136;2024-02-23T06:09:56;15.88;;;6.90;;
55218;SDS011;65463;43.864;20.136;2024-02-23T06:12:22;20.30;;;7.70;;
55218;SDS011;65463;43.864;20.136;2024-02-23T06:14:52;17.38;;;6.53;;
55218;SDS011;65463;43.864;20.136;2024-02-23T06:17:18;14.48;;;6.10;;
55218;SDS011;65463;43.864;20.136;2024-02-23T06:19:44;17.45;;;6.15;;
55218;SDS011;65463;43.864;20.136;2024-02-23T06:22:10;15.82;;;5.78;;
55218;SDS011;65463;43.864;20.136;2024-02-23T06:24:37;20.77;;;7.30;;
55218;SDS011;65463;43.864;20.136;2024-02-23T06:27:06;17.42;;;7.05;;
55218;SDS011;65463;43.864;20.136;2024-02-23T06:29:33;20.15;;;6.00;;
55218;SDS011;65463;43.864;20.136;2024-02-23T06:31:59;17.48;;;6.30;;
55218;SDS011;65463;43.864;20.136;2024-02-23T06:34:28;20.30;;;7.15;;
55218;SDS011;65463;43.864;20.136;2024-02-23T06:36:54;18.55;;;6.18;;
55218;SDS011;65463;43.864;20.136;2024-02-23T06:39:20;28.52;;;7.72;;
55218;SDS011;65463;43.864;20.136;2024-02-23T06:41:46;21.27;;;7.45;;
55218;SDS011;65463;43.864;20.136;2024-02-23T06:44:12;26.80;;;8.35;;
55218;SDS011;65463;43.864;20.136;2024-02-23T06:46:39;22.77;;;7.32;;
55218;SDS011;65463;43.864;20.136;2024-02-23T06:49:05;27.67;;;7.90;;
55218;SDS011;65463;43.864;20.136;2024-02-23T06:51:31;24.92;;;10.10;;
55218;SDS011;65463;43.864;20.136;2024-02-23T06:53:58;19.27;;;7.93;;
55218;SDS011;65463;43.864;20.136;2024-02-23T06:56:29;17.88;;;7.68;;
55218;SDS011;65463;43.864;20.136;2024-02-23T06:58:55;23.83;;;7.88;;
55218;SDS011;65463;43.864;20.136;2024-02-23T07:01:22;22.92;;;8.07;;
55218;SDS011;65463;43.864;20.136;2024-02-23T07:03:48;20.55;;;6.95;;
55218;SDS011;65463;43.864;20.136;2024-02-23T07:06:16;31.15;;;12.63;;
55218;SDS011;65463;43.864;20.136;2024-02-23T07:08:45;20.60;;;6.95;;
55218;SDS011;65463;43.864;20.136;2024-02-23T07:11:11;18.27;;;7.10;;
55218;SDS011;65463;43.864;20.136;2024-02-23T07:13:37;17.45;;;8.20;;
55218;SDS011;65463;43.864;20.136;2024-02-23T07:16:03;23.80;;;9.25;;
55218;SDS011;65463;43.864;20.136;2024-02-23T07:18:32;44.47;;;16.90;;
55218;SDS011;65463;43.864;20.136;2024-02-23T07:20:59;43.08;;;14.13;;
55218;SDS011;65463;43.864;20.136;2024-02-23T07:23:27;39.20;;;13.68;;
55218;SDS011;65463;43.864;20.136;2024-02-23T07:25:53;31.75;;;11.65;;
55218;SDS011;65463;43.864;20.136;2024-02-23T07:28:20;29.40;;;12.15;;
55218;SDS011;65463;43.864;20.136;2024-02-23T07:30:51;37.20;;;11.30;;
55218;SDS011;65463;43.864;20.136;2024-02-23T07:33:18;37.38;;;15.32;;
55218;SDS011;65463;43.864;20.136;2024-02-23T07:35:46;29.02;;;10.30;;
55218;SDS011;65463;43.864;20.136;2024-02-23T07:38:15;37.50;;;10.73;;
55218;SDS011;65463;43.864;20.136;2024-02-23T07:40:43;42.15;;;18.35;;
55218;SDS011;65463;43.864;20.136;2024-02-23T07:43:09;60.35;;;25.40;;
55218;SDS011;65463;43.864;20.136;2024-02-23T07:45:39;35.30;;;12.68;;
55218;SDS011;65463;43.864;20.136;2024-02-23T07:48:05;45.58;;;17.08;;
55218;SDS011;65463;43.864;20.136;2024-02-23T07:50:31;43.20;;;13.60;;
55218;SDS011;65463;43.864;20.136;2024-02-23T07:52:57;50.15;;;15.80;;
55218;SDS011;65463;43.864;20.136;2024-02-23T07:55:29;67.85;;;25.65;;
55218;SDS011;65463;43.864;20.136;2024-02-23T07:57:55;40.35;;;13.27;;
55218;SDS011;65463;43.864;20.136;2024-02-23T08:00:26;44.15;;;15.82;;
55218;SDS011;65463;43.864;20.136;2024-02-23T08:02:53;44.90;;;15.60;;
55218;SDS011;65463;43.864;20.136;2024-02-23T08:05:22;37.97;;;13.05;;
55218;SDS011;65463;43.864;20.136;2024-02-23T08:07:49;34.95;;;13.25;;
55218;SDS011;65463;43.864;20.136;2024-02-23T08:10:15;39.10;;;13.35;;
55218;SDS011;65463;43.864;20.136;2024-02-23T08:12:41;43.13;;;14.05;;
55218;SDS011;65463;43.864;20.136;2024-02-23T08:15:07;39.97;;;14.30;;
55218;SDS011;65463;43.864;20.136;2024-02-23T08:17:34;34.72;;;13.80;;
55218;SDS011;65463;43.864;20.136;2024-02-23T08:20:00;47.92;;;16.25;;
55218;SDS011;65463;43.864;20.136;2024-02-23T08:22:26;37.65;;;14.75;;
55218;SDS011;65463;43.864;20.136;2024-02-23T08:24:53;33.88;;;13.15;;
55218;SDS011;65463;43.864;20.136;2024-02-23T08:27:19;29.13;;;12.07;;
55218;SDS011;65463;43.864;20.136;2024-02-23T08:29:45;33.17;;;13.45;;
55218;SDS011;65463;43.864;20.136;2024-02-23T08:32:11;55.92;;;18.48;;
55218;SDS011;65463;43.864;20.136;2024-02-23T08:34:38;32.60;;;12.73;;
55218;SDS011;65463;43.864;20.136;2024-02-23T08:37:04;34.42;;;14.75;;
55218;SDS011;65463;43.864;20.136;2024-02-23T08:39:30;52.33;;;17.70;;
55218;SDS011;65463;43.864;20.136;2024-02-23T08:41:58;34.38;;;13.63;;
55218;SDS011;65463;43.864;20.136;2024-02-23T08:44:27;35.90;;;14.35;;
55218;SDS011;65463;43.864;20.136;2024-02-23T08:46:55;35.72;;;13.98;;
55218;SDS011;65463;43.864;20.136;2024-02-23T08:49:22;37.67;;;14.50;;
55218;SDS011;65463;43.864;20.136;2024-02-23T08:51:48;35.90;;;13.60;;
55218;SDS011;65463;43.864;20.136;2024-02-23T08:54:16;33.42;;;13.57;;
55218;SDS011;65463;43.864;20.136;2024-02-23T08:56:43;37.22;;;14.10;;
55218;SDS011;65463;43.864;20.136;2024-02-23T08:59:09;31.75;;;13.38;;
55218;SDS011;65463;43.864;20.136;2024-02-23T09:01:35;39.47;;;15.05;;
55218;SDS011;65463;43.864;20.136;2024-02-23T09:04:01;40.80;;;13.85;;
55218;SDS011;65463;43.864;20.136;2024-02-23T09:06:28;37.83;;;14.40;;
55218;SDS011;65463;43.864;20.136;2024-02-23T09:08:54;41.25;;;13.77;;
55218;SDS011;65463;43.864;20.136;2024-02-23T09:11:20;40.20;;;13.38;;
55218;SDS011;65463;43.864;20.136;2024-02-23T09:13:45;48.03;;;13.57;;
55218;SDS011;65463;43.864;20.136;2024-02-23T09:16:11;41.58;;;14.95;;
55218;SDS011;65463;43.864;20.136;2024-02-23T09:18:39;44.20;;;15.23;;
55218;SDS011;65463;43.864;20.136;2024-02-23T09:21:08;46.00;;;15.63;;
55218;SDS011;65463;43.864;20.136;2024-02-23T09:23:40;49.83;;;17.80;;
55218;SDS011;65463;43.864;20.136;2024-02-23T09:26:09;44.83;;;16.95;;
55218;SDS011;65463;43.864;20.136;2024-02-23T09:28:38;47.35;;;16.35;;
55218;SDS011;65463;43.864;20.136;2024-02-23T09:31:10;54.83;;;19.00;;
55218;SDS011;65463;43.864;20.136;2024-02-23T09:33:36;51.35;;;18.60;;
55218;SDS011;65463;43.864;20.136;2024-02-23T09:36:02;55.35;;;18.52;;
55218;SDS011;65463;43.864;20.136;2024-02-23T09:38:29;41.15;;;13.95;;
55218;SDS011;65463;43.864;20.136;2024-02-23T09:40:57;44.42;;;17.15;;
55218;SDS011;65463;43.864;20.136;2024-02-23T09:43:25;48.17;;;16.42;;
55218;SDS011;65463;43.864;20.136;2024-02-23T09:45:57;34.00;;;12.23;;
55218;SDS011;65463;43.864;20.136;2024-02-23T09:48:25;40.65;;;14.20;;
55218;SDS011;65463;43.864;20.136;2024-02-23T09:50:52;55.10;;;17.73;;
55218;SDS011;65463;43.864;20.136;2024-02-23T09:53:19;30.83;;;13.98;;
55218;SDS011;65463;43.864;20.136;2024-02-23T09:55:48;37.35;;;14.10;;
55218;SDS011;65463;43.864;20.136;2024-02-23T09:58:16;28.52;;;10.88;;
55218;SDS011;65463;43.864;20.136;2024-02-23T10:00:43;31.10;;;11.43;;
55218;SDS011;65463;43.864;20.136;2024-02-23T10:03:09;30.73;;;12.05;;
55218;SDS011;65463;43.864;20.136;2024-02-23T10:05:35;25.65;;;9.85;;
55218;SDS011;65463;43.864;20.136;2024-02-23T10:08:03;17.08;;;7.43;;
55218;SDS011;65463;43.864;20.136;2024-02-23T10:10:33;17.25;;;6.30;;
55218;SDS011;65463;43.864;20.136;2024-02-23T10:13:00;13.52;;;5.35;;
55218;SDS011;65463;43.864;20.136;2024-02-23T10:15:28;5.78;;;3.00;;
55218;SDS011;65463;43.864;20.136;2024-02-23T10:17:55;7.13;;;2.85;;
55218;SDS011;65463;43.864;20.136;2024-02-23T10:20:22;7.60;;;3.47;;
55218;SDS011;65463;43.864;20.136;2024-02-23T10:22:48;13.32;;;4.95;;
55218;SDS011;65463;43.864;20.136;2024-02-23T10:25:18;3.80;;;1.77;;
55218;SDS011;65463;43.864;20.136;2024-02-23T10:27:45;9.98;;;5.00;;
55218;SDS011;65463;43.864;20.136;2024-02-23T10:30:12;4.55;;;2.42;;
55218;SDS011;65463;43.864;20.136;2024-02-23T10:32:43;3.92;;;2.10;;
55218;SDS011;65463;43.864;20.136;2024-02-23T10:35:16;26.25;;;11.82;;
55218;SDS011;65463;43.864;20.136;2024-02-23T10:37:43;9.65;;;5.32;;
55218;SDS011;65463;43.864;20.136;2024-02-23T10:40:12;5.93;;;3.38;;
55218;SDS011;65463;43.864;20.136;2024-02-23T10:42:39;3.50;;;1.95;;
55218;SDS011;65463;43.864;20.136;2024-02-23T10:45:06;3.35;;;1.60;;
55218;SDS011;65463;43.864;20.136;2024-02-23T10:47:33;9.77;;;5.55;;
55218;SDS011;65463;43.864;20.136;2024-02-23T10:50:03;43.65;;;20.55;;
55218;SDS011;65463;43.864;20.136;2024-02-23T10:52:31;7.43;;;4.30;;
55218;SDS011;65463;43.864;20.136;2024-02-23T10:54:58;25.85;;;11.15;;
55218;SDS011;65463;43.864;20.136;2024-02-23T10:57:30;20.33;;;9.38;;
55218;SDS011;65463;43.864;20.136;2024-02-23T10:59:57;4.35;;;1.70;;
55218;SDS011;65463;43.864;20.136;2024-02-23T11:02:24;18.10;;;8.38;;
55218;SDS011;65463;43.864;20.136;2024-02-23T11:04:53;2.97;;;1.55;;
55218;SDS011;65463;43.864;20.136;2024-02-23T11:07:22;3.03;;;1.80;;
55218;SDS011;65463;43.864;20.136;2024-02-23T11:09:59;11.90;;;5.70;;
55218;SDS011;65463;43.864;20.136;2024-02-23T11:12:26;2.28;;;1.45;;
55218;SDS011;65463;43.864;20.136;2024-02-23T11:14:58;2.10;;;1.08;;
55218;SDS011;65463;43.864;20.136;2024-02-23T11:17:31;12.48;;;5.78;;
55218;SDS011;65463;43.864;20.136;2024-02-23T11:19:57;3.83;;;1.73;;
55218;SDS011;65463;43.864;20.136;2024-02-23T11:22:27;5.05;;;2.38;;
55218;SDS011;65463;43.864;20.136;2024-02-23T11:24:59;7.40;;;2.80;;
55218;SDS011;65463;43.864;20.136;2024-02-23T11:27:29;14.05;;;6.53;;
55218;SDS011;65463;43.864;20.136;2024-02-23T11:30:05;7.88;;;3.88;;
55218;SDS011;65463;43.864;20.136;2024-02-23T11:32:43;5.80;;;3.55;;
55218;SDS011;65463;43.864;20.136;2024-02-23T11:35:11;7.35;;;3.90;;
55218;SDS011;65463;43.864;20.136;2024-02-23T11:37:48;2.20;;;1.38;;
55218;SDS011;65463;43.864;20.136;2024-02-23T11:40:14;2.58;;;1.55;;
55218;SDS011;65463;43.864;20.136;2024-02-23T11:42:43;1.77;;;1.30;;
55218;SDS011;65463;43.864;20.136;2024-02-23T11:45:09;3.17;;;1.85;;
55218;SDS011;65463;43.864;20.136;2024-02-23T11:47:36;2.25;;;1.52;;
55218;SDS011;65463;43.864;20.136;2024-02-23T11:50:03;4.07;;;1.60;;
55218;SDS011;65463;43.864;20.136;2024-02-23T11:52:29;2.40;;;1.38;;
55218;SDS011;65463;43.864;20.136;2024-02-23T11:54:55;7.53;;;4.07;;
55218;SDS011;65463;43.864;20.136;2024-02-23T11:57:21;7.15;;;4.45;;
55218;SDS011;65463;43.864;20.136;2024-02-23T11:59:47;3.28;;;1.85;;
55218;SDS011;65463;43.864;20.136;2024-02-23T12:02:14;1.10;;;1.00;;
55218;SDS011;65463;43.864;20.136;2024-02-23T12:04:40;3.10;;;1.17;;
55218;SDS011;65463;43.864;20.136;2024-02-23T12:07:06;2.92;;;1.90;;
55218;SDS011;65463;43.864;20.136;2024-02-23T12:09:32;1.75;;;1.17;;
55218;SDS011;65463;43.864;20.136;2024-02-23T12:12:01;2.45;;;1.40;;
55218;SDS011;65463;43.864;20.136;2024-02-23T12:14:27;3.67;;;1.67;;
55218;SDS011;65463;43.864;20.136;2024-02-23T12:16:53;2.28;;;1.20;;
55218;SDS011;65463;43.864;20.136;2024-02-23T12:19:19;2.47;;;1.40;;
55218;SDS011;65463;43.864;20.136;2024-02-23T12:21:46;2.03;;;1.00;;
55218;SDS011;65463;43.864;20.136;2024-02-23T12:24:17;3.08;;;1.67;;
55218;SDS011;65463;43.864;20.136;2024-02-23T12:26:52;3.55;;;1.10;;
55218;SDS011;65463;43.864;20.136;2024-02-23T12:29:21;3.50;;;1.30;;
55218;SDS011;65463;43.864;20.136;2024-02-23T12:31:48;1.20;;;0.90;;
55218;SDS011;65463;43.864;20.136;2024-02-23T12:34:18;1.38;;;1.05;;
55218;SDS011;65463;43.864;20.136;2024-02-23T12:36:46;4.47;;;1.50;;
55218;SDS011;65463;43.864;20.136;2024-02-23T12:39:12;2.55;;;1.17;;
55218;SDS011;65463;43.864;20.136;2024-02-23T12:41:38;1.70;;;1.00;;
55218;SDS011;65463;43.864;20.136;2024-02-23T12:44:04;2.78;;;1.48;;
55218;SDS011;65463;43.864;20.136;2024-02-23T12:46:31;2.60;;;1.20;;
55218;SDS011;65463;43.864;20.136;2024-02-23T12:49:00;2.78;;;1.52;;
55218;SDS011;65463;43.864;20.136;2024-02-23T12:51:26;4.35;;;1.70;;
55218;SDS011;65463;43.864;20.136;2024-02-23T12:53:52;2.92;;;1.40;;
55218;SDS011;65463;43.864;20.136;2024-02-23T12:56:19;3.60;;;1.92;;
55218;SDS011;65463;43.864;20.136;2024-02-23T12:58:47;2.28;;;1.30;;
55218;SDS011;65463;43.864;20.136;2024-02-23T13:01:14;2.38;;;1.20;;
55218;SDS011;65463;43.864;20.136;2024-02-23T13:03:42;5.68;;;1.13;;
55218;SDS011;65463;43.864;20.136;2024-02-23T13:06:09;3.65;;;1.30;;
55218;SDS011;65463;43.864;20.136;2024-02-23T13:08:35;2.20;;;1.08;;
55218;SDS011;65463;43.864;20.136;2024-02-23T13:13:34;3.03;;;1.38;;
55218;SDS011;65463;43.864;20.136;2024-02-23T13:16:02;2.65;;;1.15;;
55218;SDS011;65463;43.864;20.136;2024-02-23T13:18:28;4.13;;;1.30;;
55218;SDS011;65463;43.864;20.136;2024-02-23T13:20:55;1.90;;;0.98;;
55218;SDS011;65463;43.864;20.136;2024-02-23T13:23:23;2.22;;;1.25;;
55218;SDS011;65463;43.864;20.136;2024-02-23T13:25:49;1.23;;;0.73;;
55218;SDS011;65463;43.864;20.136;2024-02-23T13:28:16;2.70;;;1.10;;
55218;SDS011;65463;43.864;20.136;2024-02-23T13:30:42;2.03;;;1.02;;
55218;SDS011;65463;43.864;20.136;2024-02-23T13:33:10;2.63;;;1.20;;
55218;SDS011;65463;43.864;20.136;2024-02-23T13:35:36;1.80;;;0.90;;
55218;SDS011;65463;43.864;20.136;2024-02-23T13:38:04;2.08;;;1.20;;
55218;SDS011;65463;43.864;20.136;2024-02-23T13:40:30;6.32;;;3.33;;
55218;SDS011;65463;43.864;20.136;2024-02-23T13:42:56;2.33;;;1.33;;
55218;SDS011;65463;43.864;20.136;2024-02-23T13:45:23;3.88;;;1.30;;
55218;SDS011;65463;43.864;20.136;2024-02-23T13:47:56;1.80;;;1.00;;
55218;SDS011;65463;43.864;20.136;2024-02-23T13:50:23;3.35;;;1.60;;
55218;SDS011;65463;43.864;20.136;2024-02-23T13:52:50;2.63;;;1.33;;
55218;SDS011;65463;43.864;20.136;2024-02-23T13:55:17;2.25;;;1.20;;
55218;SDS011;65463;43.864;20.136;2024-02-23T13:57:45;3.00;;;1.48;;
55218;SDS011;65463;43.864;20.136;2024-02-23T14:00:12;2.80;;;1.42;;
55218;SDS011;65463;43.864;20.136;2024-02-23T14:02:39;3.55;;;2.20;;
55218;SDS011;65463;43.864;20.136;2024-02-23T14:05:05;1.65;;;1.00;;
55218;SDS011;65463;43.864;20.136;2024-02-23T14:07:35;1.42;;;0.88;;
55218;SDS011;65463;43.864;20.136;2024-02-23T14:10:01;3.87;;;1.60;;
55218;SDS011;65463;43.864;20.136;2024-02-23T14:12:28;3.35;;;1.20;;
55218;SDS011;65463;43.864;20.136;2024-02-23T14:14:55;7.18;;;3.55;;
55218;SDS011;65463;43.864;20.136;2024-02-23T14:17:21;1.70;;;1.02;;
55218;SDS011;65463;43.864;20.136;2024-02-23T14:19:46;1.98;;;1.10;;
55218;SDS011;65463;43.864;20.136;2024-02-23T14:22:12;18.15;;;7.65;;
55218;SDS011;65463;43.864;20.136;2024-02-23T14:24:38;11.88;;;4.20;;